createdAt,value
2022-11-14T00:03:11.054Z,100216.75
2022-11-14T00:08:22.516Z,100220.47
2022-11-14T00:13:25.727Z,100228.50
2022-11-14T00:18:29.097Z,100245.53
2022-11-14T00:23:33.954Z,100244.91
2022-11-14T00:28:37.154Z,100252.66
2022-11-14T00:33:40.326Z,100261.63
2022-11-14T00:38:44.906Z,100263.47
2022-11-14T00:43:48.091Z,100254.81
2022-11-14T00:48:51.241Z,100259.28
2022-11-14T00:53:55.794Z,100262.56
2022-11-14T00:58:58.905Z,100255.56
2022-11-14T01:04:02.206Z,100250.38
2022-11-14T01:09:06.862Z,100255.81
2022-11-14T01:14:09.810Z,100256.94
2022-11-14T01:19:12.944Z,100254.31
2022-11-14T01:24:17.449Z,100248.28
2022-11-14T01:29:20.557Z,100248.13
2022-11-14T01:34:23.852Z,100247.38
2022-11-14T01:39:29.048Z,100243.03
2022-11-14T01:44:49.793Z,100244.88
2022-11-14T01:49:58.992Z,100248.41
2022-11-14T01:55:07.530Z,100249.38
2022-11-14T02:00:13.541Z,100253.69
2022-11-14T02:05:19.143Z,100254.63
2022-11-14T02:10:23.921Z,100250.13
2022-11-14T02:15:27.553Z,100250.59
2022-11-14T02:20:36.477Z,100242.78
2022-11-14T02:25:40.642Z,100253.31
2022-11-14T02:30:43.769Z,100250.84
2022-11-14T02:35:48.345Z,100258.78
2022-11-14T02:40:51.468Z,100255.25
2022-11-14T02:45:54.780Z,100261.34
2022-11-14T02:50:59.323Z,100254.41
2022-11-14T02:56:02.492Z,100258.09
2022-11-14T03:01:20.235Z,100253.91
2022-11-14T03:06:25.769Z,100256.03
2022-11-14T03:11:29.051Z,100255.25
2022-11-14T03:16:32.239Z,100246.72
2022-11-14T03:21:36.817Z,100254.13
2022-11-14T03:26:39.959Z,100244.38
2022-11-14T03:31:43.106Z,100240.69
2022-11-14T03:36:47.688Z,100244.94
2022-11-14T03:41:50.844Z,100253.75
2022-11-14T03:46:53.984Z,100254.81
2022-11-14T03:51:58.521Z,100255.94
2022-11-14T03:57:01.640Z,100254.69
2022-11-14T04:02:04.776Z,100247.28
2022-11-14T04:07:09.387Z,100252.22
2022-11-14T04:12:15.730Z,100241.69
2022-11-14T04:17:19.274Z,100242.66
2022-11-14T04:22:23.888Z,100245.84
2022-11-14T04:27:27.158Z,100262.13
2022-11-14T04:32:30.331Z,100262.25
2022-11-14T04:37:34.874Z,100260.94
2022-11-14T04:42:38.025Z,100264.84
2022-11-14T04:47:42.849Z,100267.97
2022-11-14T04:52:47.242Z,100273.41
2022-11-14T04:57:55.447Z,100272.38
2022-11-14T05:03:00.386Z,100273.16
2022-11-14T05:08:05.094Z,100274.97
2022-11-14T05:13:08.221Z,100281.94
2022-11-14T05:18:11.368Z,100295.00
2022-11-14T05:23:20.989Z,100280.22
2022-11-14T05:28:24.111Z,100284.81
2022-11-14T05:33:27.268Z,100280.22
2022-11-14T05:38:32.339Z,100276.66
2022-11-14T05:43:35.906Z,100271.53
2022-11-14T05:48:39.700Z,100259.03
2022-11-14T05:53:44.233Z,100261.66
2022-11-14T05:58:47.410Z,100254.47
2022-11-14T06:03:50.586Z,100265.00
2022-11-14T06:08:55.196Z,100266.84
2022-11-14T06:13:58.319Z,100276.63
2022-11-14T06:19:01.458Z,100276.28
2022-11-14T06:24:06.838Z,100280.09
2022-11-14T06:29:11.393Z,100276.44
2022-11-14T06:34:14.651Z,100296.09
2022-11-14T06:39:19.169Z,100297.69
2022-11-14T06:44:26.418Z,100293.34
2022-11-14T06:49:36.586Z,100300.44
2022-11-14T06:54:44.780Z,100309.38
2022-11-14T06:59:48.209Z,100312.94
2022-11-14T07:04:51.333Z,100311.34
2022-11-14T07:09:56.711Z,100313.09
2022-11-14T07:14:59.899Z,100325.41
2022-11-14T07:20:03.097Z,100328.97
2022-11-14T07:25:08.737Z,100326.97
2022-11-14T07:30:12.795Z,100334.06
2022-11-14T07:35:16.098Z,100340.03
2022-11-14T07:40:20.852Z,100348.84
2022-11-14T07:45:23.994Z,100350.59
2022-11-14T07:50:28.984Z,100357.75
2022-11-14T07:55:33.570Z,100360.47
2022-11-14T08:00:36.853Z,100370.81
2022-11-14T08:05:40.137Z,100373.38
2022-11-14T08:10:44.696Z,100379.63
2022-11-14T08:15:47.836Z,100377.69
2022-11-14T08:20:50.970Z,100389.50
2022-11-14T08:25:55.650Z,100391.81
2022-11-14T08:31:01.429Z,100396.72
2022-11-14T08:36:05.637Z,100400.28
2022-11-14T08:41:10.210Z,100395.56
2022-11-14T08:46:13.339Z,100400.44
2022-11-14T08:51:16.480Z,100389.91
2022-11-14T08:56:21.047Z,100397.41
2022-11-14T09:01:24.207Z,100399.97
2022-11-14T09:06:27.390Z,100405.56
2022-11-14T09:11:31.902Z,100403.19
2022-11-14T09:16:35.062Z,100414.41
2022-11-14T09:21:38.210Z,100414.13
2022-11-14T09:26:42.756Z,100410.06
2022-11-14T09:31:45.944Z,100414.81
2022-11-14T09:36:49.141Z,100414.41
2022-11-14T09:42:09.869Z,100427.06
2022-11-14T09:47:21.440Z,100429.56
2022-11-14T09:52:32.324Z,100427.44
2022-11-14T09:57:36.921Z,100420.66
2022-11-14T10:02:47.605Z,100415.72
2022-11-14T10:08:05.222Z,100411.88
2022-11-14T10:13:25.242Z,100404.13
2022-11-14T10:18:42.170Z,100399.72
2022-11-14T10:23:56.262Z,100399.78
2022-11-14T10:29:23.962Z,100402.88
2022-11-14T10:34:32.376Z,100401.03
2022-11-14T10:39:41.983Z,100392.91
2022-11-14T10:44:52.385Z,100394.75
2022-11-14T10:50:00.212Z,100394.81
2022-11-14T10:55:08.717Z,100375.41
2022-11-14T11:00:16.950Z,100366.22
2022-11-14T11:05:23.092Z,100368.28
2022-11-14T11:10:43.698Z,100371.53
2022-11-14T11:29:08.994Z,100350.50
2022-11-14T11:34:12.145Z,100346.56
2022-11-14T11:39:24.991Z,100346.03
2022-11-14T11:44:36.464Z,100345.03
2022-11-14T11:49:52.878Z,100343.22
2022-11-14T11:55:04.743Z,100337.03
2022-11-14T12:00:17.524Z,100333.59
2022-11-14T12:05:31.012Z,100325.91
2022-11-14T12:10:37.620Z,100328.47
2022-11-14T12:15:53.898Z,100325.38
2022-11-14T12:21:12.509Z,100316.41
2022-11-14T12:26:34.301Z,100313.19
2022-11-14T12:31:40.756Z,100302.91
2022-11-14T12:36:46.703Z,100293.03
2022-11-14T12:41:50.022Z,100288.78
2022-11-14T12:47:20.047Z,100286.75
2022-11-14T12:52:48.875Z,100275.81
2022-11-14T12:58:04.816Z,100267.66
2022-11-14T13:03:34.149Z,100266.13
2022-11-14T13:09:03.826Z,100249.88
2022-11-14T13:14:27.118Z,100244.91
2022-11-14T13:19:49.093Z,100232.03
2022-11-14T13:25:21.043Z,100228.47
2022-11-14T13:30:53.758Z,100223.97
2022-11-14T13:36:05.692Z,100213.66
2022-11-14T13:41:37.223Z,100218.81
2022-11-14T13:47:09.605Z,100204.63
2022-11-14T13:52:15.378Z,100207.94
2022-11-14T13:57:30.898Z,100205.44
2022-11-14T14:02:57.915Z,100206.88
2022-11-14T14:08:15.689Z,100201.41
2022-11-14T14:13:32.041Z,100199.50
2022-11-14T14:18:46.494Z,100203.63
2022-11-14T14:24:00.941Z,100210.41
2022-11-14T14:29:17.087Z,100207.56
2022-11-14T14:34:25.126Z,100209.25
2022-11-14T14:39:30.468Z,100195.59
2022-11-14T14:44:38.677Z,100193.00
2022-11-14T14:49:42.181Z,100193.22
2022-11-14T14:54:56.131Z,100169.56
2022-11-14T15:00:02.730Z,100176.06
2022-11-14T15:05:07.246Z,100171.59
2022-11-14T15:10:21.173Z,100166.13
2022-11-14T15:15:26.441Z,100179.09
2022-11-14T15:20:31.046Z,100162.84
2022-11-14T15:25:35.749Z,100165.50
2022-11-14T15:30:39.301Z,100141.28
2022-11-14T15:35:42.699Z,100144.44
2022-11-14T15:41:11.777Z,100140.38
2022-11-14T15:46:42.572Z,100144.34
2022-11-14T15:51:48.624Z,100145.09
2022-11-14T15:56:53.614Z,100142.03
2022-11-14T16:02:00.285Z,100136.38
2022-11-14T16:07:03.748Z,100141.34
2022-11-14T16:12:09.091Z,100132.53
2022-11-14T16:17:15.150Z,100128.97
2022-11-14T16:22:19.452Z,100124.41
2022-11-14T16:27:24.001Z,100128.03
2022-11-14T16:32:28.424Z,100119.53
2022-11-14T16:37:31.593Z,100121.09
2022-11-14T16:42:36.172Z,100114.88
2022-11-14T16:47:40.417Z,100122.03
2022-11-14T16:52:43.566Z,100115.06
2022-11-14T16:57:49.119Z,100117.44
2022-11-14T17:02:52.289Z,100128.94
2022-11-14T17:07:57.286Z,100119.38
2022-11-14T17:13:01.815Z,100129.19
2022-11-14T17:18:05.576Z,100133.09
2022-11-14T17:23:08.736Z,100133.41
2022-11-14T17:28:13.868Z,100127.66
2022-11-14T17:33:17.044Z,100137.38
2022-11-14T17:38:20.178Z,100141.63
2022-11-14T17:43:24.724Z,100131.34
2022-11-14T17:48:28.028Z,100132.19
2022-11-14T17:53:31.565Z,100128.09
2022-11-14T17:58:36.370Z,100129.13
2022-11-14T18:03:39.759Z,100130.22
2022-11-14T18:08:43.272Z,100127.72
2022-11-14T18:13:47.808Z,100133.19
2022-11-14T18:18:52.145Z,100137.78
2022-11-14T18:23:56.813Z,100145.75
2022-11-14T18:29:02.293Z,100145.91
2022-11-14T18:34:05.639Z,100149.97
2022-11-14T18:39:08.958Z,100145.88
2022-11-14T18:44:13.562Z,100144.66
2022-11-14T18:49:16.755Z,100149.88
2022-11-14T18:54:20.133Z,100156.19
2022-11-14T18:59:24.797Z,100155.13
2022-11-14T19:04:28.076Z,100168.31
2022-11-14T19:09:31.551Z,100155.91
2022-11-14T19:14:37.062Z,100157.91
2022-11-14T19:19:40.322Z,100148.91
2022-11-14T19:24:43.767Z,100144.59
2022-11-14T19:29:48.369Z,100139.97
2022-11-14T19:34:51.626Z,100139.34
2022-11-14T19:39:55.700Z,100136.72
2022-11-14T19:45:00.355Z,100128.03
2022-11-14T19:50:03.557Z,100129.13
2022-11-14T19:55:07.068Z,100105.28
2022-11-14T20:00:12.729Z,100092.91
2022-11-14T20:05:16.084Z,100082.16
2022-11-14T20:10:19.377Z,100072.78
2022-11-14T20:15:24.015Z,100068.53
2022-11-14T20:20:27.171Z,100073.94
2022-11-14T20:25:30.333Z,100081.06
2022-11-14T20:30:35.334Z,100069.88
2022-11-14T20:35:39.055Z,100090.84
2022-11-14T20:40:42.389Z,100081.91
2022-11-14T20:45:56.475Z,100085.84
2022-11-14T20:51:05.818Z,100085.63
2022-11-14T20:56:09.164Z,100093.53
2022-11-14T21:01:14.423Z,100094.44
2022-11-14T21:06:18.249Z,100090.22
2022-11-14T21:11:22.692Z,100099.78
2022-11-14T21:16:31.818Z,100097.84
2022-11-14T21:21:37.231Z,100081.06
2022-11-14T21:26:41.327Z,100076.34
2022-11-14T21:31:47.306Z,100072.94
2022-11-14T21:36:50.592Z,100079.44
2022-11-14T21:41:54.422Z,100075.19
2022-11-14T21:46:59.059Z,100074.50
2022-11-14T21:52:02.349Z,100053.44
2022-11-14T21:57:09.787Z,100042.78
2022-11-14T22:02:32.613Z,100042.09
2022-11-14T22:07:35.877Z,100043.91
2022-11-14T22:12:39.308Z,100037.66
2022-11-14T22:17:43.914Z,100038.34
2022-11-14T22:22:47.143Z,100045.94
2022-11-14T22:27:50.376Z,100018.75
2022-11-14T22:32:55.002Z,100023.25
2022-11-14T22:37:58.407Z,100016.19
2022-11-14T22:43:01.814Z,100008.22
2022-11-14T22:48:06.745Z,99991.53
2022-11-14T22:53:10.007Z,99974.19
2022-11-14T22:58:13.213Z,99974.38
2022-11-14T23:03:20.663Z,99969.19
2022-11-14T23:08:24.162Z,99972.50
2022-11-14T23:13:27.578Z,99961.47
2022-11-14T23:18:32.301Z,99960.28
2022-11-14T23:23:35.590Z,99964.03
2022-11-14T23:28:39.613Z,99965.22
2022-11-14T23:33:44.273Z,99970.63
2022-11-14T23:38:47.574Z,99963.41
2022-11-14T23:43:50.844Z,99957.91
2022-11-14T23:48:55.671Z,99945.34
2022-11-14T23:53:58.689Z,99944.38
2022-11-14T23:59:02.161Z,99933.44
